createdAt,value
2022-08-20T00:00:29.694Z,99553.81
2022-08-20T00:03:03.262Z,99560.97
2022-08-20T00:05:38.962Z,99552.56
2022-08-20T00:08:06.338Z,99555.53
2022-08-20T00:10:34.898Z,99540.72
2022-08-20T00:13:01.812Z,99546.25
2022-08-20T00:15:31.662Z,99535.72
2022-08-20T00:17:59.240Z,99532.28
2022-08-20T00:20:31.222Z,99528.94
2022-08-20T00:22:58.625Z,99543.88
2022-08-20T00:25:26.692Z,99540.69
2022-08-20T00:27:53.587Z,99539.19
2022-08-20T00:30:20.861Z,99539.31
2022-08-20T00:33:00.558Z,99534.09
2022-08-20T00:35:30.166Z,99537.44
2022-08-20T00:38:00.728Z,99528.69
2022-08-20T00:40:40.603Z,99517.69
2022-08-20T00:43:24.298Z,99517.47
2022-08-20T00:45:55.474Z,99522.69
2022-08-20T00:48:32.678Z,99523.59
2022-08-20T00:51:10.375Z,99518.78
2022-08-20T00:53:38.473Z,99515.47
2022-08-20T00:56:08.244Z,99513.66
2022-08-20T00:58:37.431Z,99507.31
2022-08-20T01:01:05.935Z,99519.38
2022-08-20T01:03:33.325Z,99512.31
2022-08-20T01:06:00.721Z,99520.28
2022-08-20T01:08:27.939Z,99507.72
2022-08-20T01:11:10.483Z,99514.00
2022-08-20T01:13:38.851Z,99503.75
2022-08-20T01:16:14.404Z,99496.38
2022-08-20T01:18:45.445Z,99513.66
2022-08-20T01:21:12.508Z,99498.69
2022-08-20T01:23:48.750Z,99498.59
2022-08-20T01:26:23.804Z,99501.34
2022-08-20T01:28:56.380Z,99498.25
2022-08-20T01:31:27.396Z,99494.81
2022-08-20T01:33:55.887Z,99492.44
2022-08-20T01:36:26.831Z,99486.31
2022-08-20T01:38:54.615Z,99488.19
2022-08-20T01:41:49.577Z,99485.69
2022-08-20T01:44:18.382Z,99486.03
2022-08-20T01:46:47.128Z,99482.41
2022-08-20T01:49:22.982Z,99478.25
2022-08-20T01:51:53.712Z,99482.69
2022-08-20T01:54:21.597Z,99484.38
2022-08-20T01:56:59.931Z,99472.91
2022-08-20T01:59:27.374Z,99462.59
2022-08-20T02:01:54.502Z,99468.47
2022-08-20T02:04:21.428Z,99457.81
2022-08-20T02:06:56.156Z,99456.25
2022-08-20T02:09:30.191Z,99464.59
2022-08-20T02:11:57.861Z,99464.16
2022-08-20T02:14:26.584Z,99453.88
2022-08-20T02:16:55.160Z,99446.75
2022-08-20T02:19:57.488Z,99451.63
2022-08-20T02:22:36.549Z,99447.69
2022-08-20T02:25:06.672Z,99447.63
2022-08-20T02:27:33.959Z,99436.81
2022-08-20T02:30:03.049Z,99433.16
2022-08-20T02:32:33.969Z,99431.78
2022-08-20T02:35:04.082Z,99426.00
2022-08-20T02:37:31.689Z,99415.34
2022-08-20T02:39:58.975Z,99419.56
2022-08-20T02:42:26.561Z,99421.66
2022-08-20T02:44:54.466Z,99412.66
2022-08-20T02:47:21.246Z,99420.41
2022-08-20T02:49:48.151Z,99419.34
2022-08-20T02:52:14.939Z,99412.91
2022-08-20T02:54:41.840Z,99404.66
2022-08-20T02:57:14.151Z,99402.13
2022-08-20T02:59:41.087Z,99403.50
2022-08-20T03:02:07.869Z,99401.63
2022-08-20T03:04:34.686Z,99407.72
2022-08-20T03:07:01.570Z,99396.66
2022-08-20T03:09:28.485Z,99396.50
2022-08-20T03:11:55.279Z,99392.16
2022-08-20T03:14:22.106Z,99388.59
2022-08-20T03:16:48.963Z,99381.09
2022-08-20T03:19:15.786Z,99379.47
2022-08-20T03:21:42.684Z,99369.22
2022-08-20T03:24:09.649Z,99371.91
2022-08-20T03:26:36.502Z,99366.69
2022-08-20T03:29:03.881Z,99369.75
2022-08-20T03:31:30.666Z,99363.97
2022-08-20T03:33:57.622Z,99365.28
2022-08-20T03:36:28.822Z,99348.53
2022-08-20T03:39:01.536Z,99351.28
2022-08-20T03:41:29.136Z,99340.69
2022-08-20T03:43:56.083Z,99344.28
2022-08-20T03:46:23.950Z,99344.41
2022-08-20T03:48:59.815Z,99334.47
2022-08-20T03:51:31.146Z,99326.97
2022-08-20T03:53:58.999Z,99323.25
2022-08-20T03:56:26.495Z,99317.59
2022-08-20T03:58:53.358Z,99330.78
2022-08-20T04:01:45.855Z,99313.84
2022-08-20T04:04:12.115Z,99313.03
2022-08-20T04:06:40.386Z,99308.81
2022-08-20T04:09:09.637Z,99304.19
2022-08-20T04:11:39.330Z,99299.63
2022-08-20T04:14:06.318Z,99293.66
2022-08-20T04:16:34.318Z,99292.22
2022-08-20T04:19:03.564Z,99286.09
2022-08-20T04:21:32.996Z,99273.34
2022-08-20T04:24:01.407Z,99279.56
2022-08-20T04:26:28.300Z,99279.69
2022-08-20T04:28:55.888Z,99276.38
2022-08-20T04:31:33.676Z,99269.22
2022-08-20T04:34:07.765Z,99259.25
2022-08-20T04:36:35.580Z,99256.31
2022-08-20T04:39:02.723Z,99266.00
2022-08-20T04:41:29.626Z,99254.81
2022-08-20T04:43:56.885Z,99238.91
2022-08-20T04:46:28.057Z,99245.59
2022-08-20T04:48:56.447Z,99243.25
2022-08-20T04:51:24.338Z,99247.75
2022-08-20T04:53:53.726Z,99247.16
2022-08-20T04:56:24.089Z,99237.28
2022-08-20T04:58:52.501Z,99252.72
2022-08-20T05:01:19.608Z,99249.09
2022-08-20T05:03:49.260Z,99252.00
2022-08-20T05:06:17.899Z,99260.81
2022-08-20T05:08:44.992Z,99253.75
2022-08-20T05:11:34.560Z,99247.63
2022-08-20T05:13:59.312Z,99250.31
2022-08-20T05:16:27.356Z,99248.16
2022-08-20T05:18:54.336Z,99240.63
2022-08-20T05:21:21.667Z,99243.06
2022-08-20T05:23:49.526Z,99241.44
2022-08-20T05:26:17.093Z,99231.47
2022-08-20T05:28:58.124Z,99247.88
2022-08-20T05:31:31.457Z,99251.69
2022-08-20T05:34:10.801Z,99246.13
2022-08-20T05:36:45.445Z,99247.88
2022-08-20T05:39:15.156Z,99242.31
2022-08-20T05:41:42.122Z,99240.19
2022-08-20T05:44:10.970Z,99227.47
2022-08-20T05:46:41.266Z,99234.53
2022-08-20T05:49:13.630Z,99224.63
2022-08-20T05:51:41.025Z,99214.16
2022-08-20T05:54:08.133Z,99211.00
2022-08-20T05:56:36.191Z,99213.69
2022-08-20T05:59:04.862Z,99225.31
2022-08-20T06:01:33.344Z,99220.28
2022-08-20T06:04:19.628Z,99212.47
2022-08-20T06:06:47.597Z,99214.44
2022-08-20T06:09:28.137Z,99201.25
2022-08-20T06:12:01.956Z,99191.88
2022-08-20T06:14:28.894Z,99204.41
2022-08-20T06:16:57.689Z,99213.06
2022-08-20T06:19:27.183Z,99197.47
2022-08-20T06:21:59.899Z,99191.50
2022-08-20T06:24:27.134Z,99191.25
2022-08-20T06:26:58.747Z,99191.03
2022-08-20T06:29:26.056Z,99191.03
2022-08-20T06:31:53.128Z,99184.00
2022-08-20T06:34:20.060Z,99175.16
2022-08-20T06:36:46.986Z,99154.69
2022-08-20T06:39:15.273Z,99136.66
2022-08-20T06:41:42.314Z,99138.78
2022-08-20T06:44:10.217Z,99129.13
2022-08-20T06:46:38.564Z,99120.75
2022-08-20T06:49:06.637Z,99123.19
2022-08-20T06:51:34.402Z,99122.69
2022-08-20T06:54:01.596Z,99126.47
2022-08-20T06:56:28.455Z,99118.91
2022-08-20T06:58:55.574Z,99095.50
2022-08-20T07:01:22.498Z,99103.59
2022-08-20T07:03:54.386Z,99103.59
2022-08-20T07:06:25.892Z,99093.63
2022-08-20T07:08:54.180Z,99087.44
2022-08-20T07:11:26.559Z,99075.31
2022-08-20T07:13:55.092Z,99059.94
2022-08-20T07:16:22.146Z,99058.59
2022-08-20T07:18:49.167Z,99056.44
2022-08-20T07:21:17.454Z,99058.06
2022-08-20T07:23:44.453Z,99062.38
2022-08-20T07:26:11.456Z,99052.66
2022-08-20T07:28:38.277Z,99061.84
2022-08-20T07:31:23.630Z,99062.38
2022-08-20T07:33:50.778Z,99079.06
2022-08-20T07:36:20.410Z,99089.84
2022-08-20T07:38:48.035Z,99095.47
2022-08-20T07:41:15.206Z,99103.63
2022-08-20T07:43:45.642Z,99110.88
2022-08-20T07:46:14.725Z,99123.28
2022-08-20T07:48:46.230Z,99118.44
2022-08-20T07:51:17.147Z,99113.06
2022-08-20T07:53:45.373Z,99117.59
2022-08-20T07:56:14.541Z,99113.03
2022-08-20T07:58:43.841Z,99107.91
2022-08-20T08:01:13.473Z,99101.13
2022-08-20T08:03:49.443Z,99103.56
2022-08-20T08:06:29.699Z,99092.75
2022-08-20T08:09:10.573Z,99084.91
2022-08-20T08:11:39.496Z,99081.66
2022-08-20T08:14:08.369Z,99068.34
2022-08-20T08:16:36.149Z,99063.78
2022-08-20T08:19:06.184Z,99070.72
2022-08-20T08:21:33.057Z,99043.69
2022-08-20T08:23:59.980Z,98987.50
2022-08-20T08:26:29.001Z,98990.50
2022-08-20T08:28:56.846Z,99023.59
2022-08-20T08:31:25.637Z,99029.56
2022-08-20T08:33:52.654Z,99036.75
2022-08-20T08:36:19.571Z,99019.72
2022-08-20T08:38:46.726Z,99024.88
2022-08-20T08:41:33.663Z,99026.56
2022-08-20T08:44:13.122Z,99048.00
2022-08-20T08:46:42.971Z,99047.19
2022-08-20T08:49:15.189Z,99032.28
2022-08-20T08:51:46.307Z,99043.34
2022-08-20T08:54:17.423Z,99039.22
2022-08-20T08:56:44.222Z,99039.22
2022-08-20T08:59:18.662Z,99034.03
2022-08-20T09:01:54.118Z,99045.13
2022-08-20T09:04:43.225Z,99043.69
2022-08-20T09:07:14.999Z,99033.09
2022-08-20T09:09:44.219Z,99031.47
2022-08-20T09:12:18.929Z,99028.25
2022-08-20T09:14:48.078Z,99034.19
2022-08-20T09:17:17.050Z,99036.69
2022-08-20T09:19:44.084Z,99038.81
2022-08-20T09:22:13.774Z,99036.69
2022-08-20T09:24:41.567Z,99042.88
2022-08-20T09:27:08.906Z,99034.88
2022-08-20T09:29:35.986Z,99034.78
2022-08-20T09:32:14.902Z,99026.63
2022-08-20T09:34:44.544Z,99034.16
2022-08-20T09:37:11.626Z,99056.25
2022-08-20T09:39:38.762Z,99049.16
2022-08-20T09:42:13.890Z,99053.47
2022-08-20T09:44:41.328Z,99059.94
2022-08-20T09:47:08.209Z,99070.84
2022-08-20T09:49:36.820Z,99068.81
2022-08-20T09:52:05.542Z,99072.75
2022-08-20T09:54:33.916Z,99075.00
2022-08-20T09:57:03.742Z,99074.13
2022-08-20T09:59:31.484Z,99060.19
2022-08-20T10:01:58.364Z,99068.91
2022-08-20T10:04:25.464Z,99068.84
2022-08-20T10:06:52.263Z,99075.06
2022-08-20T10:09:19.174Z,99059.84
2022-08-20T10:11:45.954Z,99082.41
2022-08-20T10:14:12.832Z,99075.56
2022-08-20T10:16:40.598Z,99084.94
2022-08-20T10:19:07.638Z,99078.03
2022-08-20T10:21:38.572Z,99067.47
2022-08-20T10:24:06.319Z,99075.44
2022-08-20T10:26:33.102Z,99064.28
2022-08-20T10:29:00.017Z,99065.97
2022-08-20T10:31:26.906Z,99088.41
2022-08-20T10:33:53.768Z,99067.78
2022-08-20T10:36:20.636Z,99064.06
2022-08-20T10:38:49.190Z,99062.78
2022-08-20T10:41:16.252Z,99058.16
2022-08-20T10:43:43.194Z,99058.16
2022-08-20T10:46:10.118Z,99067.47
2022-08-20T10:48:37.050Z,99065.50
2022-08-20T10:51:04.093Z,99064.69
2022-08-20T10:53:31.208Z,99071.13
2022-08-20T10:55:58.351Z,99081.66
2022-08-20T10:58:25.497Z,99093.81
2022-08-20T11:00:53.071Z,99075.09
2022-08-20T11:03:20.327Z,99085.22
2022-08-20T11:05:47.397Z,99078.06
2022-08-20T11:08:14.359Z,99080.88
2022-08-20T11:10:41.318Z,99077.25
2022-08-20T11:13:08.859Z,99077.78
2022-08-20T11:15:37.698Z,99076.50
2022-08-20T11:18:05.620Z,99082.66
2022-08-20T11:20:32.946Z,99056.72
2022-08-20T11:22:59.933Z,99068.09
2022-08-20T11:25:27.401Z,99065.28
2022-08-20T11:27:56.170Z,99066.09
2022-08-20T11:30:27.516Z,99073.41
2022-08-20T11:32:54.965Z,99072.84
2022-08-20T11:35:43.321Z,99078.56
2022-08-20T11:38:11.551Z,99096.78
2022-08-20T11:40:38.588Z,99088.41
2022-08-20T11:43:20.808Z,99091.97
2022-08-20T11:45:53.337Z,99080.97
2022-08-20T11:48:20.382Z,99085.22
2022-08-20T11:50:48.077Z,99081.91
2022-08-20T11:53:15.472Z,99089.34
2022-08-20T11:55:42.883Z,99083.09
2022-08-20T11:58:10.201Z,99085.50
2022-08-20T12:00:37.228Z,99091.31
2022-08-20T12:03:08.906Z,99093.03
2022-08-20T12:05:39.835Z,99088.06
2022-08-20T12:08:06.935Z,99082.56
2022-08-20T12:10:34.286Z,99086.47
2022-08-20T12:13:03.438Z,99100.06
2022-08-20T12:15:32.042Z,99093.19
2022-08-20T12:17:59.276Z,99103.28
2022-08-20T12:20:26.405Z,99106.78
2022-08-20T12:22:54.229Z,99097.44
2022-08-20T12:25:21.334Z,99109.44
2022-08-20T12:27:48.165Z,99107.94
2022-08-20T12:30:18.196Z,99106.03
2022-08-20T12:32:45.152Z,99109.44
2022-08-20T12:35:14.104Z,99115.94
2022-08-20T12:37:42.208Z,99121.41
2022-08-20T12:40:13.394Z,99115.69
2022-08-20T12:42:40.653Z,99111.81
2022-08-20T12:45:08.428Z,99112.97
2022-08-20T12:47:38.572Z,99113.25
2022-08-20T12:50:11.954Z,99120.13
2022-08-20T12:52:39.541Z,99122.69
2022-08-20T12:55:08.242Z,99108.88
2022-08-20T12:57:57.429Z,99118.63
2022-08-20T13:00:51.977Z,99121.13
2022-08-20T13:03:20.711Z,99115.06
2022-08-20T13:05:48.342Z,99124.09
2022-08-20T13:08:15.229Z,99116.66
2022-08-20T13:10:45.795Z,99113.91
2022-08-20T13:13:14.790Z,99121.22
2022-08-20T13:15:44.425Z,99123.66
2022-08-20T13:18:11.427Z,99128.69
2022-08-20T13:20:38.508Z,99128.22
2022-08-20T13:23:05.617Z,99133.81
2022-08-20T13:25:33.627Z,99126.97
2022-08-20T13:28:04.430Z,99132.97
2022-08-20T13:30:32.286Z,99133.69
2022-08-20T13:32:59.183Z,99145.00
2022-08-20T13:35:26.188Z,99129.81
2022-08-20T13:37:53.252Z,99124.53
2022-08-20T13:40:20.366Z,99137.22
2022-08-20T13:42:47.228Z,99136.38
2022-08-20T13:45:14.447Z,99135.94
2022-08-20T13:47:42.443Z,99134.50
2022-08-20T13:50:15.855Z,99127.19
2022-08-20T13:52:43.551Z,99141.16
2022-08-20T13:55:13.104Z,99137.25
2022-08-20T13:57:40.375Z,99138.59
2022-08-20T14:00:12.332Z,99136.97
2022-08-20T14:02:40.288Z,99143.16
2022-08-20T14:05:07.509Z,99146.06
2022-08-20T14:07:34.659Z,99149.91
2022-08-20T14:10:08.238Z,99140.53
2022-08-20T14:12:35.248Z,99143.09
2022-08-20T14:15:02.133Z,99155.28
2022-08-20T14:17:32.829Z,99155.50
2022-08-20T14:20:04.349Z,99152.09
2022-08-20T14:22:31.555Z,99154.19
2022-08-20T14:25:02.686Z,99145.69
2022-08-20T14:27:31.479Z,99142.66
2022-08-20T14:29:58.812Z,99156.75
2022-08-20T14:32:26.080Z,99151.28
2022-08-20T14:34:53.926Z,99148.88
2022-08-20T14:37:25.989Z,99146.88
2022-08-20T14:39:55.362Z,99153.47
2022-08-20T14:42:23.005Z,99150.00
2022-08-20T14:44:51.043Z,99153.66
2022-08-20T14:47:20.745Z,99179.63
2022-08-20T14:49:49.252Z,99156.56
2022-08-20T14:52:17.435Z,99155.69
2022-08-20T14:54:45.092Z,99144.91
2022-08-20T14:57:15.203Z,99151.72
2022-08-20T14:59:42.801Z,99158.00
2022-08-20T15:02:11.855Z,99150.09
2022-08-20T15:04:39.356Z,99134.91
2022-08-20T15:07:16.250Z,99146.88
2022-08-20T15:09:43.273Z,99142.06
2022-08-20T15:12:10.093Z,99134.03
2022-08-20T15:14:39.258Z,99151.38
2022-08-20T15:17:06.381Z,99143.69
2022-08-20T15:19:33.207Z,99152.25
2022-08-20T15:22:00.157Z,99151.75
2022-08-20T15:24:27.047Z,99160.81
2022-08-20T15:26:54.134Z,99166.16
2022-08-20T15:29:23.267Z,99159.06
2022-08-20T15:31:51.197Z,99155.22
2022-08-20T15:34:18.405Z,99162.03
2022-08-20T15:36:46.233Z,99169.81
2022-08-20T15:39:12.993Z,99165.72
2022-08-20T15:41:39.818Z,99160.16
2022-08-20T15:44:07.231Z,99160.50
2022-08-20T15:46:37.493Z,99164.75
2022-08-20T15:49:08.725Z,99159.66
2022-08-20T15:51:44.949Z,99151.84
2022-08-20T15:54:19.650Z,99164.84
2022-08-20T15:56:50.875Z,99156.22
2022-08-20T15:59:43.605Z,99158.88
2022-08-20T16:02:35.383Z,99158.13
2022-08-20T16:05:15.180Z,99157.41
2022-08-20T16:08:06.691Z,99152.44
2022-08-20T16:11:01.537Z,99159.91
2022-08-20T16:13:32.430Z,99162.47
2022-08-20T16:16:01.638Z,99164.16
2022-08-20T16:18:33.647Z,99163.78
2022-08-20T16:21:03.763Z,99143.63
2022-08-20T16:23:37.971Z,99162.09
2022-08-20T16:26:27.279Z,99163.38
2022-08-20T16:29:11.705Z,99162.97
2022-08-20T16:32:04.050Z,99165.66
2022-08-20T16:34:41.468Z,99172.88
2022-08-20T16:37:11.226Z,99174.56
2022-08-20T16:40:17.041Z,99162.91
2022-08-20T16:42:46.589Z,99171.44
2022-08-20T16:45:19.599Z,99171.75
2022-08-20T16:47:46.816Z,99171.75
2022-08-20T16:50:24.427Z,99179.00
2022-08-20T16:52:52.000Z,99165.03
2022-08-20T16:55:21.682Z,99168.97
2022-08-20T16:57:48.925Z,99164.94
2022-08-20T17:00:39.028Z,99164.69
2022-08-20T17:03:31.615Z,99175.00
2022-08-20T17:06:45.808Z,99170.47
2022-08-20T17:09:20.169Z,99167.66
2022-08-20T17:11:48.794Z,99163.53
2022-08-20T17:14:18.698Z,99171.81
2022-08-20T17:16:50.001Z,99172.03
2022-08-20T17:19:28.712Z,99181.03
2022-08-20T17:21:56.199Z,99190.97
2022-08-20T17:24:26.448Z,99182.06
2022-08-20T17:26:58.517Z,99191.69
2022-08-20T17:29:32.315Z,99190.50
2022-08-20T17:32:15.845Z,99198.63
2022-08-20T17:34:48.769Z,99198.50
2022-08-20T17:37:36.177Z,99195.78
2022-08-20T17:40:28.006Z,99203.38
2022-08-20T17:43:07.505Z,99208.88
2022-08-20T17:45:37.397Z,99198.50
2022-08-20T17:48:08.403Z,99197.66
2022-08-20T17:50:36.410Z,99203.91
2022-08-20T17:53:27.265Z,99201.19
2022-08-20T17:56:13.504Z,99199.78
2022-08-20T17:59:03.375Z,99194.44
2022-08-20T18:01:33.888Z,99195.00
2022-08-20T18:04:00.886Z,99194.59
2022-08-20T18:06:58.564Z,99198.72
2022-08-20T18:09:51.697Z,99200.75
2022-08-20T18:12:39.596Z,99203.63
2022-08-20T18:15:11.727Z,99208.63
2022-08-20T18:17:58.065Z,99200.63
2022-08-20T18:20:27.636Z,99201.13
2022-08-20T18:23:03.705Z,99204.78
2022-08-20T18:26:04.260Z,99206.19
2022-08-20T18:28:52.785Z,99203.56
2022-08-20T18:31:48.953Z,99211.09
2022-08-20T18:34:19.296Z,99205.16
2022-08-20T18:37:01.780Z,99217.91
2022-08-20T18:39:36.085Z,99209.69
2022-08-20T18:42:02.945Z,99213.34
2022-08-20T18:44:40.244Z,99229.91
2022-08-20T18:47:23.223Z,99223.84
2022-08-20T18:50:16.799Z,99223.16
2022-08-20T18:52:53.246Z,99226.69
2022-08-20T18:55:45.704Z,99228.75
2022-08-20T18:58:34.824Z,99236.22
2022-08-20T19:01:04.956Z,99221.72
2022-08-20T19:03:39.055Z,99231.56
2022-08-20T19:06:27.640Z,99220.41
2022-08-20T19:09:06.319Z,99223.16
2022-08-20T19:12:00.772Z,99225.59
2022-08-20T19:14:52.293Z,99234.47
2022-08-20T19:17:52.561Z,99225.34
2022-08-20T19:20:22.348Z,99236.31
2022-08-20T19:22:50.519Z,99229.59
2022-08-20T19:25:38.081Z,99220.03
2022-08-20T19:28:24.096Z,99231.19
2022-08-20T19:30:52.530Z,99226.75
2022-08-20T19:33:43.915Z,99229.69
2022-08-20T19:36:22.314Z,99222.00
2022-08-20T19:38:59.063Z,99224.41
2022-08-20T19:41:44.171Z,99226.56
2022-08-20T19:44:11.418Z,99229.97
2022-08-20T19:46:44.880Z,99231.34
2022-08-20T19:49:15.602Z,99235.22
2022-08-20T19:52:00.283Z,99238.41
2022-08-20T19:54:29.007Z,99243.63
2022-08-20T19:57:06.932Z,99234.19
2022-08-20T19:59:33.923Z,99237.97
2022-08-20T20:02:03.635Z,99236.63
2022-08-20T20:04:55.374Z,99238.28
2022-08-20T20:07:34.380Z,99239.88
2022-08-20T20:10:01.375Z,99237.72
2022-08-20T20:12:28.993Z,99249.94
2022-08-20T20:14:55.990Z,99243.25
2022-08-20T20:17:25.383Z,99229.47
2022-08-20T20:20:00.947Z,99228.66
2022-08-20T20:22:27.770Z,99238.06
2022-08-20T20:25:12.912Z,99242.94
2022-08-20T20:27:40.516Z,99235.69
2022-08-20T20:30:11.371Z,99228.16
2022-08-20T20:32:47.160Z,99237.66
2022-08-20T20:35:27.824Z,99241.94
2022-08-20T20:38:08.041Z,99247.63
2022-08-20T20:40:50.447Z,99244.34
2022-08-20T20:43:25.259Z,99240.59
2022-08-20T20:46:12.924Z,99240.91
2022-08-20T20:48:43.075Z,99244.13
2022-08-20T20:51:26.729Z,99243.03
2022-08-20T20:53:55.304Z,99242.78
2022-08-20T20:56:26.954Z,99247.94
2022-08-20T20:58:56.133Z,99243.34
2022-08-20T21:01:47.892Z,99249.84
2022-08-20T21:04:10.482Z,99242.28
2022-08-20T21:06:37.301Z,99245.25
2022-08-20T21:09:04.239Z,99243.09
2022-08-20T21:11:31.125Z,99241.22
2022-08-20T21:13:57.971Z,99236.03
2022-08-20T21:16:24.750Z,99240.69
2022-08-20T21:18:51.691Z,99239.06
2022-08-20T21:21:18.582Z,99241.75
2022-08-20T21:23:45.419Z,99244.41
2022-08-20T21:26:12.451Z,99247.66
2022-08-20T21:28:39.680Z,99234.72
2022-08-20T21:31:06.552Z,99244.41
2022-08-20T21:33:33.396Z,99251.41
2022-08-20T21:36:00.214Z,99249.78
2022-08-20T21:38:27.932Z,99268.41
2022-08-20T21:40:54.755Z,99257.34
2022-08-20T21:43:25.154Z,99266.75
2022-08-20T21:45:52.017Z,99264.88
2022-08-20T21:48:19.223Z,99267.78
2022-08-20T21:50:46.031Z,99273.19
2022-08-20T21:53:13.295Z,99280.66
2022-08-20T21:55:40.768Z,99277.09
2022-08-20T21:58:08.333Z,99276.56
2022-08-20T22:00:50.635Z,99276.34
2022-08-20T22:03:20.118Z,99279.03
2022-08-20T22:05:47.338Z,99281.22
2022-08-20T22:08:14.235Z,99280.94
2022-08-20T22:10:41.008Z,99283.88
2022-08-20T22:13:07.952Z,99278.75
2022-08-20T22:15:34.750Z,99279.88
2022-08-20T22:18:01.702Z,99286.06
2022-08-20T22:20:29.015Z,99277.66
2022-08-20T22:22:55.900Z,99279.25
2022-08-20T22:25:23.374Z,99279.28
2022-08-20T22:27:50.201Z,99283.28
2022-08-20T22:30:17.040Z,99279.31
2022-08-20T22:32:52.029Z,99286.47
2022-08-20T22:35:19.878Z,99285.38
2022-08-20T22:37:46.978Z,99286.91
2022-08-20T22:40:13.958Z,99295.03
2022-08-20T22:42:40.826Z,99280.44
2022-08-20T22:45:11.591Z,99287.41
2022-08-20T22:47:41.874Z,99284.19
2022-08-20T22:50:08.957Z,99288.19
2022-08-20T22:52:37.702Z,99291.44
2022-08-20T22:55:06.046Z,99285.81
2022-08-20T22:57:34.363Z,99279.03
2022-08-20T23:00:01.563Z,99278.78
2022-08-20T23:02:28.418Z,99288.56
2022-08-20T23:04:55.248Z,99286.41
2022-08-20T23:07:22.194Z,99287.22
2022-08-20T23:09:49.429Z,99284.69
2022-08-20T23:12:16.266Z,99290.53
2022-08-20T23:14:43.116Z,99281.03
2022-08-20T23:17:17.621Z,99282.25
2022-08-20T23:19:45.966Z,99277.16
2022-08-20T23:22:13.064Z,99269.28
2022-08-20T23:24:40.452Z,99266.97
2022-08-20T23:27:08.405Z,99272.91
2022-08-20T23:29:35.711Z,99261.19
2022-08-20T23:32:02.693Z,99261.44
2022-08-20T23:34:29.626Z,99271.91
2022-08-20T23:36:57.411Z,99273.53
2022-08-20T23:39:25.707Z,99274.38
2022-08-20T23:41:53.560Z,99264.16
2022-08-20T23:44:26.521Z,99275.47
2022-08-20T23:47:00.526Z,99277.94
2022-08-20T23:49:28.069Z,99269.50
2022-08-20T23:51:55.486Z,99271.72
2022-08-20T23:54:22.367Z,99275.72
2022-08-20T23:56:49.588Z,99269.75
2022-08-20T23:59:16.881Z,99275.47
